Ischia Jet — IOBI — position and weather

sailwx.info

Track history (hours):
 
Tides and Currents Weather Stations Pressure Air Temp Water Temp Dewpoint Dewpoint Depression Visibility Wind Speed Wind Dir Waves Ship Positions

Ischia Jet

Last reported at 2018-Apr-26 09:30 UTC. Time now 2018-Apr-26 09:48 UTC.
Position N 40°50' E 014°15'.

Length 42 m; draft 1.2 m.

Type: Passenger vessel. MMSI: 247048700.

Date/timePositionNaut miles runAvg speedWind from/ knotsBaromVisibWave heightAir tempDewpointWater temp
2018-Apr-26 09:30N 40°50' E 014°15'815.9
2018-Apr-26 09:00N 40°42' E 014°16'910.5
2018-Apr-26 08:09N 40°33' E 014°15'320.4
2018-Apr-26 08:00N 40°35' E 014°17'5 9.5
2018-Apr-26 07:30N 40°38' E 014°23'814.3
2018-Apr-26 06:58N 40°33' E 014°14'816.3
2018-Apr-26 06:30N 40°38' E 014°23'4 0.3
2018-Apr-25 16:37N 40°41' E 014°26'325.3
2018-Apr-25 16:31N 40°39' E 014°24'510.1
2018-Apr-25 16:00N 40°36' E 014°18'4 5.9
2018-Apr-25 15:21N 40°34' E 014°15'2 4.9
2018-Apr-25 15:00N 40°35' E 014°15'1 1.0
2018-Apr-25 14:29N 40°35' E 014°15'0 0.8
2018-Apr-25 14:00N 40°35' E 014°15'1 1.1
2018-Apr-25 13:29N 40°34' E 014°14'1 2.2
2018-Apr-25 12:58N 40°33' E 014°15'816.3
2018-Apr-25 12:30N 40°38' E 014°23'814.2
2018-Apr-25 11:58N 40°33' E 014°14'0 0.1
2018-Apr-25 10:31N 40°33' E 014°15'0 9.5
2018-Apr-25 10:29N 40°34' E 014°15'1124.0
2018-Apr-25 10:00N 40°45' E 014°16'510.4
2018-Apr-25 09:30N 40°50' E 014°15'815.2
2018-Apr-25 09:00N 40°43' E 014°16'911.9
2018-Apr-25 08:13N 40°33' E 014°14'419.6
2018-Apr-25 08:00N 40°36' E 014°18'1 3.0
2018-Apr-25 07:31N 40°37' E 014°20'5 9.8
2018-Apr-25 06:57N 40°33' E 014°15'717.0
2018-Apr-25 06:30N 40°38' E 014°23'4 0.3
2018-Apr-24 16:33N 40°41' E 014°26'125.7
2018-Apr-24 16:30N 40°41' E 014°25'612.8
2018-Apr-24 16:00N 40°37' E 014°18'3 6.0
2018-Apr-24 15:26N 40°34' E 014°16'715.4
2018-Apr-24 15:01N 40°38' E 014°23'0 0.5
2018-Apr-24 14:31N 40°38' E 014°23'7 7.0
2018-Apr-24 13:30N 40°34' E 014°15'1223.8
2018-Apr-24 13:00N 40°46' E 014°17'4 8.7
2018-Apr-24 12:29N 40°50' E 014°15'0 0.0
2018-Apr-24 11:57N 40°50' E 014°15'0 0.8
2018-Apr-24 11:29N 40°50' E 014°16'1021.5
2018-Apr-24 11:00N 40°40' E 014°15'6 5.1
2018-Apr-24 09:45N 40°33' E 014°14'0 0.0
2018-Apr-24 09:28N 40°33' E 014°14'0 0.0
2018-Apr-24 08:52N 40°33' E 014°14'0 0.0
2018-Apr-24 08:29N 40°33' E 014°14'4 8.1
2018-Apr-24 08:00N 40°36' E 014°18'3 6.0
2018-Apr-24 07:30N 40°38' E 014°21'712.4
2018-Apr-24 06:58N 40°33' E 014°15'716.2
2018-Apr-24 06:30N 40°38' E 014°23'4 0.3
2018-Apr-23 16:35N 40°41' E 014°26'225.8
2018-Apr-23 16:30N 40°40' E 014°24'612.3
2018-Apr-23 16:00N 40°36' E 014°18'4 7.1
2018-Apr-23 15:30N 40°34' E 014°15'715.2
2018-Apr-23 15:00N 40°38' E 014°23'0 0.5
2018-Apr-23 14:30N 40°38' E 014°23'7 7.2
2018-Apr-23 13:30N 40°34' E 014°15'1224.7
2018-Apr-23 13:00N 40°46' E 014°17'4 8.4
2018-Apr-23 12:29N 40°50' E 014°16'1021.8
2018-Apr-23 12:00N 40°40' E 014°16'612.3
2018-Apr-23 11:29N 40°33' E 014°14'0 0.0
2018-Apr-23 10:52N 40°33' E 014°14'1 3.9
2018-Apr-23 10:30N 40°35' E 014°15'1122.3
2018-Apr-23 10:00N 40°46' E 014°17'5 7.1
2018-Apr-23 09:22N 40°50' E 014°16'822.1
2018-Apr-23 09:00N 40°42' E 014°16'9 9.8
2018-Apr-23 08:07N 40°33' E 014°15'222.4
2018-Apr-23 08:00N 40°35' E 014°17'510.3
2018-Apr-23 07:30N 40°38' E 014°23'815.1
2018-Apr-23 07:00N 40°33' E 014°14'815.5
2018-Apr-23 06:30N 40°38' E 014°23'6 0.5
2018-Apr-22 17:10N 40°43' E 014°27'426.1
2018-Apr-22 17:00N 40°45' E 014°23'714.0
2018-Apr-22 16:28N 40°50' E 014°15'818.0
2018-Apr-22 16:01N 40°42' E 014°16'813.1
2018-Apr-22 15:22N 40°33' E 014°15'821.3
2018-Apr-22 15:00N 40°41' E 014°16'918.3
2018-Apr-22 14:30N 40°50' E 014°15'510.1
2018-Apr-22 14:00N 40°45' E 014°16'12 9.7
2018-Apr-22 12:46N 40°33' E 014°14'1 5.3
2018-Apr-22 12:30N 40°35' E 014°14'0 0.1
2018-Apr-22 12:00N 40°35' E 014°14'0 0.3
2018-Apr-22 11:30N 40°35' E 014°14'0 0.3
2018-Apr-22 11:00N 40°34' E 014°14'0 0.7
2018-Apr-22 10:30N 40°34' E 014°14'1 0.9
2018-Apr-22 09:39N 40°33' E 014°14'1 4.2
2018-Apr-22 09:30N 40°34' E 014°15'1122.0
2018-Apr-22 09:00N 40°45' E 014°16'510.0
2018-Apr-22 08:28N 40°50' E 014°15'816.4
2018-Apr-22 08:00N 40°43' E 014°16'916.5
2018-Apr-22 07:26N 40°33' E 014°14'817.8
2018-Apr-22 07:01N 40°38' E 014°23'6 0.4
2018-Apr-21 17:13N 40°43' E 014°27'626.4
2018-Apr-21 17:00N 40°46' E 014°21'611.2
2018-Apr-21 16:29N 40°50' E 014°15'917.9
2018-Apr-21 16:00N 40°42' E 014°16'815.9
2018-Apr-21 15:29N 40°33' E 014°14'817.4
2018-Apr-21 15:00N 40°42' E 014°16'916.6
2018-Apr-21 14:29N 40°50' E 014°15'4 8.6
2018-Apr-21 14:00N 40°46' E 014°17'13 8.6
2018-Apr-21 12:29N 40°33' E 014°14'0 0.0
2018-Apr-21 11:58N 40°33' E 014°14'2 3.6
2018-Apr-21 11:30N 40°35' E 014°15'1122.3
2018-Apr-21 11:00N 40°46' E 014°17'4 6.8
2018-Apr-21 10:24N 40°50' E 014°16'924.0
2018-Apr-21 10:00N 40°41' E 014°16'713.2
2018-Apr-21 09:29N 40°34' E 014°15'1123.1
2018-Apr-21 09:01N 40°45' E 014°17'610.2
2018-Apr-21 08:26N 40°50' E 014°16'921.3
2018-Apr-21 08:00N 40°41' E 014°16'815.2
2018-Apr-21 07:30N 40°33' E 014°14'815.4
2018-Apr-21 07:00N 40°38' E 014°23'6 0.4
2018-Apr-20 17:14N 40°43' E 014°27'926.0
2018-Apr-20 16:54N 40°48' E 014°18'2 5.2
2018-Apr-20 16:27N 40°50' E 014°16'920.5
2018-Apr-20 16:00N 40°41' E 014°16'711.8
2018-Apr-20 15:22N 40°33' E 014°14'822.3
2018-Apr-20 15:00N 40°41' E 014°17'915.2
2018-Apr-20 14:25N 40°50' E 014°15'512.0
2018-Apr-20 14:00N 40°45' E 014°16'1221.8
2018-Apr-20 13:27N 40°33' E 014°14'0 0.1
2018-Apr-20 12:59N 40°33' E 014°14'816.3
2018-Apr-20 12:30N 40°38' E 014°23'714.0
2018-Apr-20 12:01N 40°34' E 014°15'1 1.0
2018-Apr-20 11:23N 40°33' E 014°14'0 0.0
2018-Apr-20 09:35N 40°33' E 014°14'0 5.7
2018-Apr-20 09:30N 40°34' E 014°15'1123.2
2018-Apr-20 09:00N 40°45' E 014°17'5 8.8
2018-Apr-20 08:26N 40°50' E 014°16'1024.4
2018-Apr-20 08:00N 40°40' E 014°15'610.6
2018-Apr-20 07:27N 40°34' E 014°15'715.2
2018-Apr-20 07:00N 40°38' E 014°23'4 0.3
2018-Apr-19 16:32N 40°41' E 014°26'125.7
2018-Apr-19 16:31N 40°41' E 014°26'713.5
2018-Apr-19 16:01N 40°37' E 014°18'4 7.7
2018-Apr-19 15:28N 40°34' E 014°15'716.1
2018-Apr-19 15:00N 40°38' E 014°23'0 0.5
2018-Apr-19 14:31N 40°38' E 014°23'811.4
2018-Apr-19 13:49N 40°33' E 014°14'1 3.8
2018-Apr-19 13:30N 40°34' E 014°15'1224.3
2018-Apr-19 13:01N 40°46' E 014°16'4 7.5
2018-Apr-19 12:30N 40°50' E 014°16'1020.6
2018-Apr-19 12:00N 40°40' E 014°15'713.1
2018-Apr-19 11:30N 40°33' E 014°14'0 0.0
2018-Apr-19 11:00N 40°33' E 014°14'0 0.3
2018-Apr-19 10:28N 40°33' E 014°15'1022.1
2018-Apr-19 10:01N 40°43' E 014°16'711.8
2018-Apr-19 09:26N 40°50' E 014°15'0 0.0
2018-Apr-19 08:51N 40°50' E 014°15'0 0.0
2018-Apr-19 08:18N 40°50' E 014°15'0 1.6
2018-Apr-19 08:00N 40°50' E 014°16'2 2.9
2018-Apr-19 07:29N 40°49' E 014°17'2 3.4
2018-Apr-19 06:59N 40°50' E 014°16'0 0.0
2018-Apr-18 09:46N 40°50' E 014°16'0 0.1
2018-Apr-18 09:26N 40°50' E 014°16'0 0.4
2018-Apr-18 08:56N 40°50' E 014°16'2 4.5
2018-Apr-18 08:30N 40°48' E 014°17'1020.0
2018-Apr-18 08:00N 40°39' E 014°15'5 8.8
2018-Apr-18 07:30N 40°34' E 014°15'713.7
2018-Apr-18 07:00N 40°38' E 014°23'4 0.3
2018-Apr-17 16:37N 40°41' E 014°26'219.6
2018-Apr-17 16:30N 40°39' E 014°24'510.5
2018-Apr-17 16:00N 40°36' E 014°18'2 2.8
2018-Apr-17 15:26N 40°35' E 014°17'512.2
2018-Apr-17 15:00N 40°38' E 014°23'2 4.6
2018-Apr-17 14:30N 40°38' E 014°20'5 6.3
2018-Apr-17 13:42N 40°34' E 014°15'418.4
2018-Apr-17 13:30N 40°37' E 014°17'918.8
2018-Apr-17 13:00N 40°46' E 014°18'4 6.6
2018-Apr-17 12:23N 40°50' E 014°15'0 0.0
2018-Apr-17 12:00N 40°50' E 014°15'2 4.5
2018-Apr-17 11:30N 40°48' E 014°17'1019.5
2018-Apr-17 11:00N 40°39' E 014°15'5 5.1
2018-Apr-17 09:56N 40°33' E 014°14'715.2
2018-Apr-17 09:30N 40°40' E 014°16'1018.9
2018-Apr-17 09:00N 40°49' E 014°17'2 3.4
2018-Apr-17 08:30N 40°48' E 014°17'1019.9
2018-Apr-17 08:00N 40°38' E 014°15'4 7.9
2018-Apr-17 07:30N 40°34' E 014°16'713.2
2018-Apr-17 07:00N 40°38' E 014°23'6 0.5
2018-Apr-16 17:15N 40°43' E 014°26'1013.2
2018-Apr-16 16:29N 40°50' E 014°16'1020.1
2018-Apr-16 16:00N 40°40' E 014°16'711.1
2018-Apr-16 15:25N 40°34' E 014°15'922.5
2018-Apr-16 15:00N 40°43' E 014°16'7 8.7
2018-Apr-16 14:12N 40°50' E 014°16'520.8
2018-Apr-16 13:58N 40°45' E 014°17'1211.2
2018-Apr-16 12:55N 40°33' E 014°15'818.3
2018-Apr-16 12:30N 40°38' E 014°23'7 7.4
2018-Apr-16 11:34N 40°34' E 014°15'121.9
2018-Apr-16 11:30N 40°35' E 014°16'1122.1
2018-Apr-16 11:00N 40°46' E 014°17'4 7.0
2018-Apr-16 10:30N 40°50' E 014°17'1122.8
2018-Apr-16 10:00N 40°39' E 014°16'5 9.7
2018-Apr-16 09:30N 40°34' E 014°15'  
Track history (hours):
 
Tides and Currents Weather Stations Pressure Air Temp Water Temp Dewpoint Dewpoint Depression Visibility Wind Speed Wind Dir Waves Ship Positions

Ischia Jet

Last reported at 2018-Apr-26 09:30 UTC. Time now 2018-Apr-26 09:48 UTC.
Position N 40°50' E 014°15'.

Length 42 m; draft 1.2 m.

Type: Passenger vessel. MMSI: 247048700.

Date/timePositionNaut miles runAvg speedWind from/ knotsBaromVisibWave heightAir tempDewpointWater temp
2018-Apr-26 09:30N 40°50' E 014°15'815.9
2018-Apr-26 09:00N 40°42' E 014°16'910.5
2018-Apr-26 08:09N 40°33' E 014°15'320.4
2018-Apr-26 08:00N 40°35' E 014°17'5 9.5
2018-Apr-26 07:30N 40°38' E 014°23'814.3
2018-Apr-26 06:58N 40°33' E 014°14'816.3
2018-Apr-26 06:30N 40°38' E 014°23'4 0.3
2018-Apr-25 16:37N 40°41' E 014°26'325.3
2018-Apr-25 16:31N 40°39' E 014°24'510.1
2018-Apr-25 16:00N 40°36' E 014°18'4 5.9
2018-Apr-25 15:21N 40°34' E 014°15'2 4.9
2018-Apr-25 15:00N 40°35' E 014°15'1 1.0
2018-Apr-25 14:29N 40°35' E 014°15'0 0.8
2018-Apr-25 14:00N 40°35' E 014°15'1 1.1
2018-Apr-25 13:29N 40°34' E 014°14'1 2.2
2018-Apr-25 12:58N 40°33' E 014°15'816.3
2018-Apr-25 12:30N 40°38' E 014°23'814.2
2018-Apr-25 11:58N 40°33' E 014°14'0 0.1
2018-Apr-25 10:31N 40°33' E 014°15'0 9.5
2018-Apr-25 10:29N 40°34' E 014°15'1124.0
2018-Apr-25 10:00N 40°45' E 014°16'510.4
2018-Apr-25 09:30N 40°50' E 014°15'815.2
2018-Apr-25 09:00N 40°43' E 014°16'911.9
2018-Apr-25 08:13N 40°33' E 014°14'419.6
2018-Apr-25 08:00N 40°36' E 014°18'1 3.0
2018-Apr-25 07:31N 40°37' E 014°20'5 9.8
2018-Apr-25 06:57N 40°33' E 014°15'717.0
2018-Apr-25 06:30N 40°38' E 014°23'4 0.3
2018-Apr-24 16:33N 40°41' E 014°26'125.7
2018-Apr-24 16:30N 40°41' E 014°25'612.8
2018-Apr-24 16:00N 40°37' E 014°18'3 6.0
2018-Apr-24 15:26N 40°34' E 014°16'715.4
2018-Apr-24 15:01N 40°38' E 014°23'0 0.5
2018-Apr-24 14:31N 40°38' E 014°23'7 7.0
2018-Apr-24 13:30N 40°34' E 014°15'1223.8
2018-Apr-24 13:00N 40°46' E 014°17'4 8.7
2018-Apr-24 12:29N 40°50' E 014°15'0 0.0
2018-Apr-24 11:57N 40°50' E 014°15'0 0.8
2018-Apr-24 11:29N 40°50' E 014°16'1021.5
2018-Apr-24 11:00N 40°40' E 014°15'6 5.1
2018-Apr-24 09:45N 40°33' E 014°14'0 0.0
2018-Apr-24 09:28N 40°33' E 014°14'0 0.0
2018-Apr-24 08:52N 40°33' E 014°14'0 0.0
2018-Apr-24 08:29N 40°33' E 014°14'4 8.1
2018-Apr-24 08:00N 40°36' E 014°18'3 6.0
2018-Apr-24 07:30N 40°38' E 014°21'712.4
2018-Apr-24 06:58N 40°33' E 014°15'716.2
2018-Apr-24 06:30N 40°38' E 014°23'4 0.3
2018-Apr-23 16:35N 40°41' E 014°26'225.8
2018-Apr-23 16:30N 40°40' E 014°24'612.3
2018-Apr-23 16:00N 40°36' E 014°18'4 7.1
2018-Apr-23 15:30N 40°34' E 014°15'715.2
2018-Apr-23 15:00N 40°38' E 014°23'0 0.5
2018-Apr-23 14:30N 40°38' E 014°23'7 7.2
2018-Apr-23 13:30N 40°34' E 014°15'1224.7
2018-Apr-23 13:00N 40°46' E 014°17'4 8.4
2018-Apr-23 12:29N 40°50' E 014°16'1021.8
2018-Apr-23 12:00N 40°40' E 014°16'612.3
2018-Apr-23 11:29N 40°33' E 014°14'0 0.0
2018-Apr-23 10:52N 40°33' E 014°14'1 3.9
2018-Apr-23 10:30N 40°35' E 014°15'1122.3
2018-Apr-23 10:00N 40°46' E 014°17'5 7.1
2018-Apr-23 09:22N 40°50' E 014°16'822.1
2018-Apr-23 09:00N 40°42' E 014°16'9 9.8
2018-Apr-23 08:07N 40°33' E 014°15'222.4
2018-Apr-23 08:00N 40°35' E 014°17'510.3
2018-Apr-23 07:30N 40°38' E 014°23'815.1
2018-Apr-23 07:00N 40°33' E 014°14'815.5
2018-Apr-23 06:30N 40°38' E 014°23'6 0.5
2018-Apr-22 17:10N 40°43' E 014°27'426.1
2018-Apr-22 17:00N 40°45' E 014°23'714.0
2018-Apr-22 16:28N 40°50' E 014°15'818.0
2018-Apr-22 16:01N 40°42' E 014°16'813.1
2018-Apr-22 15:22N 40°33' E 014°15'821.3
2018-Apr-22 15:00N 40°41' E 014°16'918.3
2018-Apr-22 14:30N 40°50' E 014°15'510.1
2018-Apr-22 14:00N 40°45' E 014°16'12 9.7
2018-Apr-22 12:46N 40°33' E 014°14'1 5.3
2018-Apr-22 12:30N 40°35' E 014°14'0 0.1
2018-Apr-22 12:00N 40°35' E 014°14'0 0.3
2018-Apr-22 11:30N 40°35' E 014°14'0 0.3
2018-Apr-22 11:00N 40°34' E 014°14'0 0.7
2018-Apr-22 10:30N 40°34' E 014°14'1 0.9
2018-Apr-22 09:39N 40°33' E 014°14'1 4.2
2018-Apr-22 09:30N 40°34' E 014°15'1122.0
2018-Apr-22 09:00N 40°45' E 014°16'510.0
2018-Apr-22 08:28N 40°50' E 014°15'816.4
2018-Apr-22 08:00N 40°43' E 014°16'916.5
2018-Apr-22 07:26N 40°33' E 014°14'817.8
2018-Apr-22 07:01N 40°38' E 014°23'6 0.4
2018-Apr-21 17:13N 40°43' E 014°27'626.4
2018-Apr-21 17:00N 40°46' E 014°21'611.2
2018-Apr-21 16:29N 40°50' E 014°15'917.9
2018-Apr-21 16:00N 40°42' E 014°16'815.9
2018-Apr-21 15:29N 40°33' E 014°14'817.4
2018-Apr-21 15:00N 40°42' E 014°16'916.6
2018-Apr-21 14:29N 40°50' E 014°15'4 8.6
2018-Apr-21 14:00N 40°46' E 014°17'13 8.6
2018-Apr-21 12:29N 40°33' E 014°14'0 0.0
2018-Apr-21 11:58N 40°33' E 014°14'2 3.6
2018-Apr-21 11:30N 40°35' E 014°15'1122.3
2018-Apr-21 11:00N 40°46' E 014°17'4 6.8
2018-Apr-21 10:24N 40°50' E 014°16'924.0
2018-Apr-21 10:00N 40°41' E 014°16'713.2
2018-Apr-21 09:29N 40°34' E 014°15'1123.1
2018-Apr-21 09:01N 40°45' E 014°17'610.2
2018-Apr-21 08:26N 40°50' E 014°16'921.3
2018-Apr-21 08:00N 40°41' E 014°16'815.2
2018-Apr-21 07:30N 40°33' E 014°14'815.4
2018-Apr-21 07:00N 40°38' E 014°23'6 0.4
2018-Apr-20 17:14N 40°43' E 014°27'926.0
2018-Apr-20 16:54N 40°48' E 014°18'2 5.2
2018-Apr-20 16:27N 40°50' E 014°16'920.5
2018-Apr-20 16:00N 40°41' E 014°16'711.8
2018-Apr-20 15:22N 40°33' E 014°14'822.3
2018-Apr-20 15:00N 40°41' E 014°17'915.2
2018-Apr-20 14:25N 40°50' E 014°15'512.0
2018-Apr-20 14:00N 40°45' E 014°16'1221.8
2018-Apr-20 13:27N 40°33' E 014°14'0 0.1
2018-Apr-20 12:59N 40°33' E 014°14'816.3
2018-Apr-20 12:30N 40°38' E 014°23'714.0
2018-Apr-20 12:01N 40°34' E 014°15'1 1.0
2018-Apr-20 11:23N 40°33' E 014°14'0 0.0
2018-Apr-20 09:35N 40°33' E 014°14'0 5.7
2018-Apr-20 09:30N 40°34' E 014°15'1123.2
2018-Apr-20 09:00N 40°45' E 014°17'5 8.8
2018-Apr-20 08:26N 40°50' E 014°16'1024.4
2018-Apr-20 08:00N 40°40' E 014°15'610.6
2018-Apr-20 07:27N 40°34' E 014°15'715.2
2018-Apr-20 07:00N 40°38' E 014°23'4 0.3
2018-Apr-19 16:32N 40°41' E 014°26'125.7
2018-Apr-19 16:31N 40°41' E 014°26'713.5
2018-Apr-19 16:01N 40°37' E 014°18'4 7.7
2018-Apr-19 15:28N 40°34' E 014°15'716.1
2018-Apr-19 15:00N 40°38' E 014°23'0 0.5
2018-Apr-19 14:31N 40°38' E 014°23'811.4
2018-Apr-19 13:49N 40°33' E 014°14'1 3.8
2018-Apr-19 13:30N 40°34' E 014°15'1224.3
2018-Apr-19 13:01N 40°46' E 014°16'4 7.5
2018-Apr-19 12:30N 40°50' E 014°16'1020.6
2018-Apr-19 12:00N 40°40' E 014°15'713.1
2018-Apr-19 11:30N 40°33' E 014°14'0 0.0
2018-Apr-19 11:00N 40°33' E 014°14'0 0.3
2018-Apr-19 10:28N 40°33' E 014°15'1022.1
2018-Apr-19 10:01N 40°43' E 014°16'711.8
2018-Apr-19 09:26N 40°50' E 014°15'0 0.0
2018-Apr-19 08:51N 40°50' E 014°15'0 0.0
2018-Apr-19 08:18N 40°50' E 014°15'0 1.6
2018-Apr-19 08:00N 40°50' E 014°16'2 2.9
2018-Apr-19 07:29N 40°49' E 014°17'2 3.4
2018-Apr-19 06:59N 40°50' E 014°16'0 0.0
2018-Apr-18 09:46N 40°50' E 014°16'0 0.1
2018-Apr-18 09:26N 40°50' E 014°16'0 0.4
2018-Apr-18 08:56N 40°50' E 014°16'2 4.5
2018-Apr-18 08:30N 40°48' E 014°17'1020.0
2018-Apr-18 08:00N 40°39' E 014°15'5 8.8
2018-Apr-18 07:30N 40°34' E 014°15'713.7
2018-Apr-18 07:00N 40°38' E 014°23'4 0.3
2018-Apr-17 16:37N 40°41' E 014°26'219.6
2018-Apr-17 16:30N 40°39' E 014°24'510.5
2018-Apr-17 16:00N 40°36' E 014°18'2 2.8
2018-Apr-17 15:26N 40°35' E 014°17'512.2
2018-Apr-17 15:00N 40°38' E 014°23'2 4.6
2018-Apr-17 14:30N 40°38' E 014°20'5 6.3
2018-Apr-17 13:42N 40°34' E 014°15'418.4
2018-Apr-17 13:30N 40°37' E 014°17'918.8
2018-Apr-17 13:00N 40°46' E 014°18'4 6.6
2018-Apr-17 12:23N 40°50' E 014°15'0 0.0
2018-Apr-17 12:00N 40°50' E 014°15'2 4.5
2018-Apr-17 11:30N 40°48' E 014°17'1019.5
2018-Apr-17 11:00N 40°39' E 014°15'5 5.1
2018-Apr-17 09:56N 40°33' E 014°14'715.2
2018-Apr-17 09:30N 40°40' E 014°16'1018.9
2018-Apr-17 09:00N 40°49' E 014°17'2 3.4
2018-Apr-17 08:30N 40°48' E 014°17'1019.9
2018-Apr-17 08:00N 40°38' E 014°15'4 7.9
2018-Apr-17 07:30N 40°34' E 014°16'713.2
2018-Apr-17 07:00N 40°38' E 014°23'6 0.5
2018-Apr-16 17:15N 40°43' E 014°26'1013.2
2018-Apr-16 16:29N 40°50' E 014°16'1020.1
2018-Apr-16 16:00N 40°40' E 014°16'711.1
2018-Apr-16 15:25N 40°34' E 014°15'922.5
2018-Apr-16 15:00N 40°43' E 014°16'7 8.7
2018-Apr-16 14:12N 40°50' E 014°16'520.8
2018-Apr-16 13:58N 40°45' E 014°17'1211.2
2018-Apr-16 12:55N 40°33' E 014°15'818.3
2018-Apr-16 12:30N 40°38' E 014°23'7 7.4
2018-Apr-16 11:34N 40°34' E 014°15'121.9
2018-Apr-16 11:30N 40°35' E 014°16'1122.1
2018-Apr-16 11:00N 40°46' E 014°17'4 7.0
2018-Apr-16 10:30N 40°50' E 014°17'1122.8
2018-Apr-16 10:00N 40°39' E 014°16'5 9.7
2018-Apr-16 09:30N 40°34' E 014°15'  

Dump ship's entire track history